Rae — WDF3909 — position and weather

sailwx.info

Track history (hours):
 
Tides and Currents Weather Stations Pressure Air Temp Water Temp Dewpoint Dewpoint Depression Visibility Wind Speed Wind Dir Waves Ship Positions

Rae

Owner: Fox Marine Corporation, Easton, PA. More information available from US FCC via Universal Licensing System and Coast Guard Vessel Documentation Center.

Last reported at 2018-Feb-06 22:26 UTC. Time now 2018-Feb-22 13:12 UTC.
Position N 40°38' W 074°07'.
Warning: this ship's position is 15 days out of date.

; draft 2 m.

Type: Fishing. MMSI: 367445510.

Date/timePositionNaut miles runAvg speedWind from/ knotsBaromVisibWave heightAir tempDewpointWater temp
2018-Feb-06 22:26N 40°38' W 074°07'1 3.1
2018-Feb-06 22:00N 40°39' W 074°06'2 4.6
2018-Feb-06 21:30N 40°37' W 074°03'3 5.5
2018-Feb-06 21:00N 40°35' W 074°01'3 5.4
2018-Feb-06 20:25N 40°34' W 073°58'2 4.7
2018-Feb-06 19:59N 40°32' W 073°56'3 5.2
2018-Feb-06 19:28N 40°33' W 073°52'0 0.1
2018-Feb-06 14:28N 40°33' W 073°52'4 5.9
2018-Feb-06 13:46N 40°32' W 073°57'2 5.3
2018-Feb-06 13:27N 40°34' W 073°58'3 6.6
2018-Feb-06 13:00N 40°35' W 074°02'  
Track history (hours):
 
Tides and Currents Weather Stations Pressure Air Temp Water Temp Dewpoint Dewpoint Depression Visibility Wind Speed Wind Dir Waves Ship Positions

Rae

Owner: Fox Marine Corporation, Easton, PA. More information available from US FCC via Universal Licensing System and Coast Guard Vessel Documentation Center.

Last reported at 2018-Feb-06 22:26 UTC. Time now 2018-Feb-22 13:12 UTC.
Position N 40°38' W 074°07'.
Warning: this ship's position is 15 days out of date.

; draft 2 m.

Type: Fishing. MMSI: 367445510.

Date/timePositionNaut miles runAvg speedWind from/ knotsBaromVisibWave heightAir tempDewpointWater temp
2018-Feb-06 22:26N 40°38' W 074°07'1 3.1
2018-Feb-06 22:00N 40°39' W 074°06'2 4.6
2018-Feb-06 21:30N 40°37' W 074°03'3 5.5
2018-Feb-06 21:00N 40°35' W 074°01'3 5.4
2018-Feb-06 20:25N 40°34' W 073°58'2 4.7
2018-Feb-06 19:59N 40°32' W 073°56'3 5.2
2018-Feb-06 19:28N 40°33' W 073°52'0 0.1
2018-Feb-06 14:28N 40°33' W 073°52'4 5.9
2018-Feb-06 13:46N 40°32' W 073°57'2 5.3
2018-Feb-06 13:27N 40°34' W 073°58'3 6.6
2018-Feb-06 13:00N 40°35' W 074°02'  

Dump ship's entire track history